Portada
METAR-TAF:

METAR-TAF

Aeroports :

Bombai, Índia

latitud: 19-05-53N, longitud: 072-50-02E, altitud: 4 m

Observació

L'informe es va fer fa 3 hores i 45 minuts, a les 12:30 UTC
Vent 7 kt del Oest/Sud-Oest amb ràfegues de 17 kt
Temperatura 26°C
Humitat 94%
Pressió 1000 hPa
Visibilitat: 1000 m
Núvols disperses a una alçada de 800 ft
Núvols disperses a una alçada de 1500 ft
Escasses núvols a una alçada de 3000 ft, Cumulonimbus.
Cel cobert a una alçada de 8000 ft
pluja

METAR: VAJJ 251230Z 25007G17KT 1000 R08/1200 +RA SCT008 SCT015 FEW030CB OVC080 26/25 Q1000 TEMPO 0600 +SHRA

Hora: 21:45 (16:15 UTC)


TAF: manca

Observacions i pronòstics meteorològics de més de 4000 aeroports (METAR i TAF).

Les estacions disponibles són els punts grocs i vermells al mapa.

Posi el ratolí al punt desitjat per veure el nom de l'estació.

Feu clic per veure les observacions i els pronòstics meteorològics.

Per canviar el mapa: feu clic els botons verds amb una creu de color negre per apropar; al botó verd amb un guió per allunyar la imatge; o en les fletxes verdes per a mapes adjacents.


METAR-TAF: